sensor_id;sensor_type;location;lat;lon;timestamp;pressure;altitude;pressure_sealevel;temperature;humidity
40315;BME280;26021;45.640;11.302;2023-05-08T03:27:27;98846.63;;;14.68;100.00
40315;BME280;26021;45.640;11.302;2023-05-08T03:29:54;98887.34;;;15.06;100.00
40315;BME280;26021;45.640;11.302;2023-05-08T03:32:25;98892.31;;;14.96;100.00
40315;BME280;26021;45.640;11.302;2023-05-08T03:34:51;98839.41;;;14.75;100.00
40315;BME280;26021;45.640;11.302;2023-05-08T03:37:18;98898.78;;;15.21;100.00
40315;BME280;26021;45.640;11.302;2023-05-08T03:39:44;98903.13;;;15.16;100.00
40315;BME280;26021;45.640;11.302;2023-05-08T03:42:10;98901.88;;;15.25;100.00
40315;BME280;26021;45.640;11.302;2023-05-08T03:44:51;98902.28;;;15.15;100.00
40315;BME280;26021;45.640;11.302;2023-05-08T03:47:19;98892.66;;;14.80;100.00
40315;BME280;26021;45.640;11.302;2023-05-08T03:49:45;98912.53;;;14.85;100.00
40315;BME280;26021;45.640;11.302;2023-05-08T03:52:12;98915.25;;;14.85;100.00
40315;BME280;26021;45.640;11.302;2023-05-08T03:54:37;98894.31;;;14.81;100.00
40315;BME280;26021;45.640;11.302;2023-05-08T03:57:03;98870.22;;;14.59;100.00
40315;BME280;26021;45.640;11.302;2023-05-08T03:59:58;98915.13;;;15.07;100.00
40315;BME280;26021;45.640;11.302;2023-05-08T04:02:34;98919.25;;;15.03;100.00
40315;BME280;26021;45.640;11.302;2023-05-08T04:05:05;98929.38;;;14.94;100.00
40315;BME280;26021;45.640;11.302;2023-05-08T04:07:39;98926.47;;;14.96;100.00
40315;BME280;26021;45.640;11.302;2023-05-08T04:10:29;98939.47;;;14.85;100.00
40315;BME280;26021;45.640;11.302;2023-05-08T04:13:15;98938.59;;;14.72;100.00
40315;BME280;26021;45.640;11.302;2023-05-08T04:15:47;98942.09;;;14.66;100.00
40315;BME280;26021;45.640;11.302;2023-05-08T04:18:16;98943.34;;;14.70;100.00
40315;BME280;26021;45.640;11.302;2023-05-08T04:20:46;98946.34;;;14.88;100.00
40315;BME280;26021;45.640;11.302;2023-05-08T04:23:16;98948.16;;;14.81;100.00
40315;BME280;26021;45.640;11.302;2023-05-08T04:25:43;98952.09;;;14.78;100.00
40315;BME280;26021;45.640;11.302;2023-05-08T04:28:10;98959.84;;;14.94;100.00
40315;BME280;26021;45.640;11.302;2023-05-08T04:30:36;98964.50;;;14.79;100.00
40315;BME280;26021;45.640;11.302;2023-05-08T04:33:02;98965.41;;;14.86;100.00
40315;BME280;26021;45.640;11.302;2023-05-08T04:35:29;98970.53;;;14.81;100.00
40315;BME280;26021;45.640;11.302;2023-05-08T04:37:55;98946.25;;;14.68;100.00
40315;BME280;26021;45.640;11.302;2023-05-08T04:40:20;98916.41;;;14.63;100.00
40315;BME280;26021;45.640;11.302;2023-05-08T04:42:45;98976.19;;;14.93;100.00
40315;BME280;26021;45.640;11.302;2023-05-08T04:45:12;98973.53;;;15.06;100.00
40315;BME280;26021;45.640;11.302;2023-05-08T04:47:37;98981.16;;;14.89;100.00
40315;BME280;26021;45.640;11.302;2023-05-08T04:50:03;98987.16;;;14.91;100.00
40315;BME280;26021;45.640;11.302;2023-05-08T04:52:28;98966.75;;;14.69;100.00
40315;BME280;26021;45.640;11.302;2023-05-08T04:54:54;98990.81;;;14.77;100.00
40315;BME280;26021;45.640;11.302;2023-05-08T04:57:19;98991.84;;;14.76;100.00
40315;BME280;26021;45.640;11.302;2023-05-08T04:59:45;98994.09;;;14.73;100.00
40315;BME280;26021;45.640;11.302;2023-05-08T05:02:10;98967.16;;;14.66;100.00
40315;BME280;26021;45.640;11.302;2023-05-08T05:04:36;98999.81;;;14.91;100.00
40315;BME280;26021;45.640;11.302;2023-05-08T05:07:04;98999.94;;;14.83;100.00
40315;BME280;26021;45.640;11.302;2023-05-08T05:09:29;98993.47;;;14.71;100.00
40315;BME280;26021;45.640;11.302;2023-05-08T05:11:55;99000.78;;;14.83;100.00
40315;BME280;26021;45.640;11.302;2023-05-08T05:14:20;98930.41;;;14.45;100.00
40315;BME280;26021;45.640;11.302;2023-05-08T05:16:46;98996.69;;;14.87;100.00
40315;BME280;26021;45.640;11.302;2023-05-08T05:19:11;98993.00;;;15.02;100.00
40315;BME280;26021;45.640;11.302;2023-05-08T05:21:37;99003.75;;;14.95;100.00
40315;BME280;26021;45.640;11.302;2023-05-08T05:24:04;98989.25;;;14.96;100.00
40315;BME280;26021;45.640;11.302;2023-05-08T05:26:30;98951.00;;;14.66;100.00
40315;BME280;26021;45.640;11.302;2023-05-08T05:28:55;98998.84;;;15.18;100.00
40315;BME280;26021;45.640;11.302;2023-05-08T05:31:20;98997.84;;;15.26;100.00
40315;BME280;26021;45.640;11.302;2023-05-08T05:33:46;98992.91;;;15.43;100.00
40315;BME280;26021;45.640;11.302;2023-05-08T05:36:11;98979.63;;;15.35;100.00
40315;BME280;26021;45.640;11.302;2023-05-08T05:38:37;98988.97;;;15.52;100.00
40315;BME280;26021;45.640;11.302;2023-05-08T05:41:02;98996.66;;;15.48;100.00
40315;BME280;26021;45.640;11.302;2023-05-08T05:43:28;98994.59;;;15.57;100.00
40315;BME280;26021;45.640;11.302;2023-05-08T05:45:53;98994.88;;;15.69;100.00
40315;BME280;26021;45.640;11.302;2023-05-08T05:48:20;98994.47;;;15.72;100.00
40315;BME280;26021;45.640;11.302;2023-05-08T05:50:46;99002.34;;;16.06;100.00
40315;BME280;26021;45.640;11.302;2023-05-08T05:53:11;98941.28;;;15.52;100.00
40315;BME280;26021;45.640;11.302;2023-05-08T05:55:37;99001.09;;;15.96;100.00
40315;BME280;26021;45.640;11.302;2023-05-08T05:58:03;98995.88;;;16.34;100.00
40315;BME280;26021;45.640;11.302;2023-05-08T06:00:28;98993.78;;;16.56;100.00
40315;BME280;26021;45.640;11.302;2023-05-08T06:02:55;99001.25;;;16.67;100.00
40315;BME280;26021;45.640;11.302;2023-05-08T06:05:22;99006.22;;;16.70;100.00
40315;BME280;26021;45.640;11.302;2023-05-08T06:07:47;98999.97;;;16.76;100.00
40315;BME280;26021;45.640;11.302;2023-05-08T06:10:13;99001.66;;;16.70;100.00
40315;BME280;26021;45.640;11.302;2023-05-08T06:12:38;99009.13;;;16.75;100.00
40315;BME280;26021;45.640;11.302;2023-05-08T06:15:04;99000.53;;;16.98;100.00
40315;BME280;26021;45.640;11.302;2023-05-08T06:17:30;98984.94;;;17.00;100.00
40315;BME280;26021;45.640;11.302;2023-05-08T06:19:56;98981.53;;;16.53;100.00
40315;BME280;26021;45.640;11.302;2023-05-08T06:22:22;99005.75;;;16.86;100.00
40315;BME280;26021;45.640;11.302;2023-05-08T06:24:49;98998.94;;;16.64;100.00
40315;BME280;26021;45.640;11.302;2023-05-08T06:27:18;98955.59;;;16.45;100.00
40315;BME280;26021;45.640;11.302;2023-05-08T06:29:44;98998.75;;;16.59;100.00
40315;BME280;26021;45.640;11.302;2023-05-08T06:32:10;98999.00;;;16.44;100.00
40315;BME280;26021;45.640;11.302;2023-05-08T06:34:35;98993.38;;;16.32;100.00
40315;BME280;26021;45.640;11.302;2023-05-08T06:37:00;99006.84;;;16.78;100.00
40315;BME280;26021;45.640;11.302;2023-05-08T06:39:26;99002.03;;;16.87;100.00
40315;BME280;26021;45.640;11.302;2023-05-08T06:41:51;99006.84;;;16.72;100.00
40315;BME280;26021;45.640;11.302;2023-05-08T06:44:17;99006.28;;;16.17;100.00
40315;BME280;26021;45.640;11.302;2023-05-08T06:46:42;99008.13;;;16.43;100.00
40315;BME280;26021;45.640;11.302;2023-05-08T06:49:08;99009.38;;;16.67;100.00
40315;BME280;26021;45.640;11.302;2023-05-08T06:51:33;99006.03;;;16.71;100.00
40315;BME280;26021;45.640;11.302;2023-05-08T06:54:02;99011.44;;;16.58;100.00
40315;BME280;26021;45.640;11.302;2023-05-08T06:56:32;99000.22;;;16.68;100.00
40315;BME280;26021;45.640;11.302;2023-05-08T06:58:57;99003.09;;;16.79;100.00
40315;BME280;26021;45.640;11.302;2023-05-08T07:01:22;99007.84;;;16.84;100.00
40315;BME280;26021;45.640;11.302;2023-05-08T07:03:48;98999.41;;;16.54;100.00
40315;BME280;26021;45.640;11.302;2023-05-08T07:06:13;98835.34;;;15.52;100.00
40315;BME280;26021;45.640;11.302;2023-05-08T07:08:39;99002.94;;;16.41;100.00
40315;BME280;26021;45.640;11.302;2023-05-08T07:11:04;99009.97;;;16.56;100.00
40315;BME280;26021;45.640;11.302;2023-05-08T07:13:30;99003.03;;;16.93;100.00
40315;BME280;26021;45.640;11.302;2023-05-08T07:15:56;98979.72;;;17.05;100.00
40315;BME280;26021;45.640;11.302;2023-05-08T07:18:21;99012.97;;;17.12;100.00
40315;BME280;26021;45.640;11.302;2023-05-08T07:20:47;99008.84;;;16.96;100.00
40315;BME280;26021;45.640;11.302;2023-05-08T07:23:12;99012.31;;;17.17;100.00
40315;BME280;26021;45.640;11.302;2023-05-08T07:25:38;99001.31;;;17.05;100.00
40315;BME280;26021;45.640;11.302;2023-05-08T07:28:03;99009.53;;;17.30;100.00
40315;BME280;26021;45.640;11.302;2023-05-08T07:30:29;99001.25;;;17.25;100.00
40315;BME280;26021;45.640;11.302;2023-05-08T07:32:55;99013.97;;;17.18;100.00
40315;BME280;26021;45.640;11.302;2023-05-08T07:35:20;99013.34;;;17.15;100.00
40315;BME280;26021;45.640;11.302;2023-05-08T07:37:46;99016.09;;;17.47;100.00
40315;BME280;26021;45.640;11.302;2023-05-08T07:40:12;99009.91;;;17.40;100.00
40315;BME280;26021;45.640;11.302;2023-05-08T07:42:41;99008.78;;;17.54;100.00
40315;BME280;26021;45.640;11.302;2023-05-08T07:45:10;99010.09;;;17.76;100.00
40315;BME280;26021;45.640;11.302;2023-05-08T07:47:37;99015.19;;;17.66;100.00
40315;BME280;26021;45.640;11.302;2023-05-08T07:50:02;99014.00;;;18.12;100.00
40315;BME280;26021;45.640;11.302;2023-05-08T07:52:28;99022.84;;;18.26;100.00
40315;BME280;26021;45.640;11.302;2023-05-08T07:54:53;99022.56;;;18.09;100.00
40315;BME280;26021;45.640;11.302;2023-05-08T07:57:19;98998.44;;;18.07;100.00
40315;BME280;26021;45.640;11.302;2023-05-08T07:59:44;99016.69;;;18.37;100.00
40315;BME280;26021;45.640;11.302;2023-05-08T08:02:10;99012.72;;;18.39;100.00
40315;BME280;26021;45.640;11.302;2023-05-08T08:04:35;99022.19;;;18.05;100.00
40315;BME280;26021;45.640;11.302;2023-05-08T08:07:01;99018.97;;;18.15;100.00
40315;BME280;26021;45.640;11.302;2023-05-08T08:09:26;99016.75;;;18.30;100.00
40315;BME280;26021;45.640;11.302;2023-05-08T08:11:52;99020.69;;;18.34;100.00
40315;BME280;26021;45.640;11.302;2023-05-08T08:14:17;99028.59;;;18.36;100.00
40315;BME280;26021;45.640;11.302;2023-05-08T08:16:43;99024.47;;;18.52;100.00
40315;BME280;26021;45.640;11.302;2023-05-08T08:19:08;99031.41;;;18.72;100.00
40315;BME280;26021;45.640;11.302;2023-05-08T08:21:35;98985.50;;;18.53;100.00
40315;BME280;26021;45.640;11.302;2023-05-08T08:24:00;99035.91;;;18.79;100.00
40315;BME280;26021;45.640;11.302;2023-05-08T08:26:26;99044.78;;;18.42;100.00
40315;BME280;26021;45.640;11.302;2023-05-08T08:28:51;99041.84;;;18.19;100.00
40315;BME280;26021;45.640;11.302;2023-05-08T08:31:17;99002.59;;;18.10;100.00
40315;BME280;26021;45.640;11.302;2023-05-08T08:33:44;99047.81;;;18.28;100.00
40315;BME280;26021;45.640;11.302;2023-05-08T08:36:14;99050.84;;;18.38;100.00
40315;BME280;26021;45.640;11.302;2023-05-08T08:38:40;98975.31;;;17.80;100.00
40315;BME280;26021;45.640;11.302;2023-05-08T08:41:06;99044.50;;;18.26;100.00
40315;BME280;26021;45.640;11.302;2023-05-08T08:43:33;99037.88;;;18.22;100.00
40315;BME280;26021;45.640;11.302;2023-05-08T08:46:01;99053.50;;;18.45;100.00
40315;BME280;26021;45.640;11.302;2023-05-08T08:48:29;99034.09;;;18.48;100.00
40315;BME280;26021;45.640;11.302;2023-05-08T08:50:58;99007.16;;;18.53;100.00
40315;BME280;26021;45.640;11.302;2023-05-08T08:53:34;99051.19;;;18.48;100.00
40315;BME280;26021;45.640;11.302;2023-05-08T08:56:03;99051.94;;;18.62;100.00
40315;BME280;26021;45.640;11.302;2023-05-08T08:58:37;99054.72;;;18.73;100.00
40315;BME280;26021;45.640;11.302;2023-05-08T09:01:06;99051.53;;;19.31;100.00
40315;BME280;26021;45.640;11.302;2023-05-08T09:03:33;99059.63;;;19.56;100.00
40315;BME280;26021;45.640;11.302;2023-05-08T09:05:59;99059.16;;;19.23;100.00
40315;BME280;26021;45.640;11.302;2023-05-08T09:08:25;99057.28;;;19.42;100.00
40315;BME280;26021;45.640;11.302;2023-05-08T09:10:53;99047.81;;;19.32;100.00
40315;BME280;26021;45.640;11.302;2023-05-08T09:13:20;99054.88;;;19.33;100.00
40315;BME280;26021;45.640;11.302;2023-05-08T09:15:45;99050.38;;;19.76;100.00
40315;BME280;26021;45.640;11.302;2023-05-08T09:18:11;99049.91;;;19.79;100.00
40315;BME280;26021;45.640;11.302;2023-05-08T09:20:39;99056.38;;;19.48;100.00
40315;BME280;26021;45.640;11.302;2023-05-08T09:23:05;99055.09;;;19.50;100.00
40315;BME280;26021;45.640;11.302;2023-05-08T09:25:43;99018.25;;;19.43;100.00
40315;BME280;26021;45.640;11.302;2023-05-08T09:28:16;99052.91;;;19.41;100.00
40315;BME280;26021;45.640;11.302;2023-05-08T09:30:58;99053.75;;;20.01;100.00
40315;BME280;26021;45.640;11.302;2023-05-08T09:33:25;99057.47;;;20.18;100.00
40315;BME280;26021;45.640;11.302;2023-05-08T09:35:52;99062.41;;;20.21;100.00
40315;BME280;26021;45.640;11.302;2023-05-08T09:38:37;99059.09;;;20.08;100.00
40315;BME280;26021;45.640;11.302;2023-05-08T09:41:14;99067.84;;;19.80;100.00
40315;BME280;26021;45.640;11.302;2023-05-08T09:43:41;99061.94;;;19.83;100.00
40315;BME280;26021;45.640;11.302;2023-05-08T09:46:24;99028.75;;;19.69;100.00
40315;BME280;26021;45.640;11.302;2023-05-08T09:48:51;99066.47;;;19.89;100.00
40315;BME280;26021;45.640;11.302;2023-05-08T09:51:17;99043.41;;;20.21;100.00
40315;BME280;26021;45.640;11.302;2023-05-08T09:53:43;99061.81;;;20.19;100.00
40315;BME280;26021;45.640;11.302;2023-05-08T09:56:09;99023.81;;;20.19;100.00
40315;BME280;26021;45.640;11.302;2023-05-08T09:58:42;99059.94;;;20.31;100.00
40315;BME280;26021;45.640;11.302;2023-05-08T10:01:27;99065.84;;;20.28;100.00
40315;BME280;26021;45.640;11.302;2023-05-08T10:03:53;99065.72;;;20.23;100.00
40315;BME280;26021;45.640;11.302;2023-05-08T10:06:18;99066.44;;;20.19;100.00
40315;BME280;26021;45.640;11.302;2023-05-08T10:08:44;99066.91;;;20.16;100.00
40315;BME280;26021;45.640;11.302;2023-05-08T10:13:45;99068.00;;;20.38;100.00
40315;BME280;26021;45.640;11.302;2023-05-08T10:16:15;99060.91;;;20.37;100.00
40315;BME280;26021;45.640;11.302;2023-05-08T10:18:48;99071.56;;;20.50;100.00
40315;BME280;26021;45.640;11.302;2023-05-08T10:21:15;99067.31;;;20.66;100.00
40315;BME280;26021;45.640;11.302;2023-05-08T10:23:42;99068.38;;;20.53;100.00
40315;BME280;26021;45.640;11.302;2023-05-08T10:26:13;99070.50;;;20.75;100.00
40315;BME280;26021;45.640;11.302;2023-05-08T10:28:49;99073.72;;;20.83;100.00
40315;BME280;26021;45.640;11.302;2023-05-08T10:31:20;99068.22;;;21.18;100.00
40315;BME280;26021;45.640;11.302;2023-05-08T10:33:49;99028.94;;;20.39;100.00
40315;BME280;26021;45.640;11.302;2023-05-08T10:36:18;99068.25;;;20.72;98.33
40315;BME280;26021;45.640;11.302;2023-05-08T10:38:44;99061.59;;;20.21;100.00
40315;BME280;26021;45.640;11.302;2023-05-08T10:41:10;99059.53;;;20.05;100.00
40315;BME280;26021;45.640;11.302;2023-05-08T10:43:40;99059.06;;;20.61;100.00
40315;BME280;26021;45.640;11.302;2023-05-08T10:46:13;99052.31;;;20.52;100.00
40315;BME280;26021;45.640;11.302;2023-05-08T10:48:46;99060.59;;;20.57;100.00
40315;BME280;26021;45.640;11.302;2023-05-08T10:51:22;99055.84;;;20.41;100.00
40315;BME280;26021;45.640;11.302;2023-05-08T10:53:56;99051.50;;;20.51;100.00
40315;BME280;26021;45.640;11.302;2023-05-08T10:56:27;99011.72;;;20.04;100.00
40315;BME280;26021;45.640;11.302;2023-05-08T10:58:57;99044.56;;;19.72;100.00
40315;BME280;26021;45.640;11.302;2023-05-08T11:01:23;99048.34;;;19.71;100.00
40315;BME280;26021;45.640;11.302;2023-05-08T11:03:49;99048.84;;;19.50;100.00
40315;BME280;26021;45.640;11.302;2023-05-08T11:06:15;99056.09;;;19.38;100.00
40315;BME280;26021;45.640;11.302;2023-05-08T11:08:51;99050.19;;;19.59;100.00
40315;BME280;26021;45.640;11.302;2023-05-08T11:11:31;99054.66;;;19.53;100.00
40315;BME280;26021;45.640;11.302;2023-05-08T11:14:08;99045.41;;;19.73;100.00
40315;BME280;26021;45.640;11.302;2023-05-08T11:19:23;99049.59;;;19.57;100.00
40315;BME280;26021;45.640;11.302;2023-05-08T11:24:38;99052.53;;;19.55;100.00
40315;BME280;26021;45.640;11.302;2023-05-08T11:27:03;99050.94;;;19.48;100.00
40315;BME280;26021;45.640;11.302;2023-05-08T11:29:29;99045.13;;;19.62;100.00
40315;BME280;26021;45.640;11.302;2023-05-08T11:31:54;99052.53;;;19.85;100.00
40315;BME280;26021;45.640;11.302;2023-05-08T11:37:15;99054.56;;;19.23;100.00
40315;BME280;26021;45.640;11.302;2023-05-08T11:39:41;99049.69;;;19.14;100.00
40315;BME280;26021;45.640;11.302;2023-05-08T11:45:07;99041.19;;;19.10;100.00
40315;BME280;26021;45.640;11.302;2023-05-08T11:50:02;99044.19;;;19.39;100.00
40315;BME280;26021;45.640;11.302;2023-05-08T11:52:30;99042.75;;;19.54;100.00
40315;BME280;26021;45.640;11.302;2023-05-08T11:54:55;99047.03;;;19.25;100.00
40315;BME280;26021;45.640;11.302;2023-05-08T11:57:21;99047.06;;;19.07;100.00
40315;BME280;26021;45.640;11.302;2023-05-08T11:59:50;99050.31;;;18.97;100.00
40315;BME280;26021;45.640;11.302;2023-05-08T12:02:16;99050.91;;;18.81;100.00
40315;BME280;26021;45.640;11.302;2023-05-08T12:04:43;99053.38;;;18.58;100.00
40315;BME280;26021;45.640;11.302;2023-05-08T12:07:10;99052.00;;;18.49;100.00
40315;BME280;26021;45.640;11.302;2023-05-08T12:09:36;99020.91;;;18.33;100.00
40315;BME280;26021;45.640;11.302;2023-05-08T12:12:02;99028.75;;;18.66;100.00
40315;BME280;26021;45.640;11.302;2023-05-08T12:14:28;99046.38;;;18.75;100.00
40315;BME280;26021;45.640;11.302;2023-05-08T12:16:53;99047.22;;;18.94;100.00
40315;BME280;26021;45.640;11.302;2023-05-08T12:19:19;99038.69;;;18.90;100.00
40315;BME280;26021;45.640;11.302;2023-05-08T12:21:45;99020.88;;;18.83;100.00
40315;BME280;26021;45.640;11.302;2023-05-08T12:24:15;99043.28;;;19.08;100.00
40315;BME280;26021;45.640;11.302;2023-05-08T12:26:46;99045.69;;;19.16;100.00
40315;BME280;26021;45.640;11.302;2023-05-08T12:29:12;99044.56;;;19.05;100.00
40315;BME280;26021;45.640;11.302;2023-05-08T12:31:37;99046.06;;;19.20;100.00
40315;BME280;26021;45.640;11.302;2023-05-08T12:34:04;99032.38;;;18.96;100.00
40315;BME280;26021;45.640;11.302;2023-05-08T12:36:34;99058.56;;;19.02;100.00
40315;BME280;26021;45.640;11.302;2023-05-08T12:39:14;99043.72;;;19.23;100.00
40315;BME280;26021;45.640;11.302;2023-05-08T12:41:50;99058.03;;;19.30;100.00
40315;BME280;26021;45.640;11.302;2023-05-08T12:44:21;99048.09;;;19.24;100.00
40315;BME280;26021;45.640;11.302;2023-05-08T12:46:56;99054.88;;;19.33;100.00
40315;BME280;26021;45.640;11.302;2023-05-08T12:49:31;99029.13;;;19.24;100.00
40315;BME280;26021;45.640;11.302;2023-05-08T12:52:07;99058.84;;;19.31;100.00
40315;BME280;26021;45.640;11.302;2023-05-08T12:54:55;99053.44;;;19.31;100.00
40315;BME280;26021;45.640;11.302;2023-05-08T12:57:20;99055.41;;;19.42;100.00
40315;BME280;26021;45.640;11.302;2023-05-08T12:59:47;99029.47;;;19.46;100.00
40315;BME280;26021;45.640;11.302;2023-05-08T13:02:23;99051.72;;;19.55;100.00
40315;BME280;26021;45.640;11.302;2023-05-08T13:04:53;98983.78;;;19.13;100.00
40315;BME280;26021;45.640;11.302;2023-05-08T13:07:23;99051.03;;;19.41;100.00
40315;BME280;26021;45.640;11.302;2023-05-08T13:09:59;99051.19;;;19.46;100.00
40315;BME280;26021;45.640;11.302;2023-05-08T13:12:28;99002.53;;;19.33;100.00
40315;BME280;26021;45.640;11.302;2023-05-08T13:14:53;99047.03;;;19.62;100.00
40315;BME280;26021;45.640;11.302;2023-05-08T13:17:19;99030.75;;;19.44;100.00
40315;BME280;26021;45.640;11.302;2023-05-08T13:19:44;99042.22;;;19.46;100.00
40315;BME280;26021;45.640;11.302;2023-05-08T13:22:10;99033.09;;;19.58;100.00
40315;BME280;26021;45.640;11.302;2023-05-08T13:24:35;99029.84;;;19.50;100.00
40315;BME280;26021;45.640;11.302;2023-05-08T13:27:01;99031.25;;;19.71;100.00
40315;BME280;26021;45.640;11.302;2023-05-08T13:29:27;99029.31;;;19.59;100.00
40315;BME280;26021;45.640;11.302;2023-05-08T13:31:52;98975.09;;;18.93;100.00
40315;BME280;26021;45.640;11.302;2023-05-08T13:34:18;99023.09;;;19.41;100.00
40315;BME280;26021;45.640;11.302;2023-05-08T13:36:43;99012.78;;;19.13;100.00
40315;BME280;26021;45.640;11.302;2023-05-08T13:39:09;99009.56;;;18.86;100.00
40315;BME280;26021;45.640;11.302;2023-05-08T13:41:35;99015.22;;;19.02;100.00
40315;BME280;26021;45.640;11.302;2023-05-08T13:44:00;99013.84;;;19.12;100.00
40315;BME280;26021;45.640;11.302;2023-05-08T13:46:25;99019.22;;;19.30;100.00
40315;BME280;26021;45.640;11.302;2023-05-08T13:48:51;98959.06;;;18.91;100.00
40315;BME280;26021;45.640;11.302;2023-05-08T13:51:16;99013.69;;;19.07;100.00
40315;BME280;26021;45.640;11.302;2023-05-08T13:53:42;99014.38;;;19.02;100.00
40315;BME280;26021;45.640;11.302;2023-05-08T13:56:07;99006.09;;;18.97;100.00
40315;BME280;26021;45.640;11.302;2023-05-08T13:58:34;99011.00;;;19.07;100.00
40315;BME280;26021;45.640;11.302;2023-05-08T14:01:00;99004.69;;;18.94;100.00
40315;BME280;26021;45.640;11.302;2023-05-08T14:03:25;99000.34;;;19.23;100.00
40315;BME280;26021;45.640;11.302;2023-05-08T14:05:51;99000.91;;;19.62;100.00
40315;BME280;26021;45.640;11.302;2023-05-08T14:08:16;98995.81;;;19.54;100.00
40315;BME280;26021;45.640;11.302;2023-05-08T14:10:42;99001.25;;;19.65;100.00
40315;BME280;26021;45.640;11.302;2023-05-08T14:13:07;99001.31;;;19.89;100.00
40315;BME280;26021;45.640;11.302;2023-05-08T14:15:32;98998.16;;;20.04;100.00
40315;BME280;26021;45.640;11.302;2023-05-08T14:17:58;98994.38;;;20.05;99.91
40315;BME280;26021;45.640;11.302;2023-05-08T14:20:24;98980.66;;;19.99;100.00
40315;BME280;26021;45.640;11.302;2023-05-08T14:22:49;99003.38;;;20.28;98.76
40315;BME280;26021;45.640;11.302;2023-05-08T14:25:15;98999.13;;;20.21;100.00
40315;BME280;26021;45.640;11.302;2023-05-08T14:27:41;98996.91;;;20.18;98.79
40315;BME280;26021;45.640;11.302;2023-05-08T14:30:07;98996.19;;;20.34;98.52
40315;BME280;26021;45.640;11.302;2023-05-08T14:32:32;98999.41;;;19.78;98.17
40315;BME280;26021;45.640;11.302;2023-05-08T14:34:58;98999.56;;;19.53;100.00
40315;BME280;26021;45.640;11.302;2023-05-08T14:37:23;98990.97;;;19.56;100.00
40315;BME280;26021;45.640;11.302;2023-05-08T14:39:49;98981.84;;;19.92;98.78
40315;BME280;26021;45.640;11.302;2023-05-08T14:42:18;98979.41;;;20.25;93.17
40315;BME280;26021;45.640;11.302;2023-05-08T14:44:43;98979.19;;;20.27;92.29
40315;BME280;26021;45.640;11.302;2023-05-08T14:47:09;98985.34;;;20.46;92.26
40315;BME280;26021;45.640;11.302;2023-05-08T14:49:34;98985.31;;;20.34;96.06
40315;BME280;26021;45.640;11.302;2023-05-08T14:52:00;98978.34;;;20.61;92.78
40315;BME280;26021;45.640;11.302;2023-05-08T14:54:25;98974.13;;;20.42;92.46
40315;BME280;26021;45.640;11.302;2023-05-08T14:56:50;98969.88;;;20.46;95.21
40315;BME280;26021;45.640;11.302;2023-05-08T14:59:16;98923.19;;;20.38;91.73
40315;BME280;26021;45.640;11.302;2023-05-08T15:01:42;98966.06;;;20.82;89.34
40315;BME280;26021;45.640;11.302;2023-05-08T15:04:09;98961.41;;;20.94;92.96
40315;BME280;26021;45.640;11.302;2023-05-08T15:06:35;98961.41;;;20.94;88.26
40315;BME280;26021;45.640;11.302;2023-05-08T15:09:00;98966.06;;;20.59;91.25
40315;BME280;26021;45.640;11.302;2023-05-08T15:11:26;98963.78;;;20.79;93.15
40315;BME280;26021;45.640;11.302;2023-05-08T15:13:51;98968.88;;;20.87;93.42
40315;BME280;26021;45.640;11.302;2023-05-08T15:16:17;98954.13;;;20.72;91.71
40315;BME280;26021;45.640;11.302;2023-05-08T15:18:42;98971.34;;;20.77;95.01
40315;BME280;26021;45.640;11.302;2023-05-08T15:21:08;98964.47;;;20.98;92.35
40315;BME280;26021;45.640;11.302;2023-05-08T15:23:33;98960.88;;;20.57;95.64
40315;BME280;26021;45.640;11.302;2023-05-08T15:25:59;98963.13;;;20.49;93.32
40315;BME280;26021;45.640;11.302;2023-05-08T15:28:24;98968.63;;;20.77;94.30
40315;BME280;26021;45.640;11.302;2023-05-08T15:30:50;98967.91;;;20.93;94.20
40315;BME280;26021;45.640;11.302;2023-05-08T15:33:15;98950.34;;;20.84;91.36
40315;BME280;26021;45.640;11.302;2023-05-08T15:35:41;98969.81;;;20.93;92.10
40315;BME280;26021;45.640;11.302;2023-05-08T15:38:06;98971.25;;;20.84;93.85
40315;BME280;26021;45.640;11.302;2023-05-08T15:40:32;98973.75;;;20.62;96.69
40315;BME280;26021;45.640;11.302;2023-05-08T15:42:58;98935.25;;;20.30;96.28
40315;BME280;26021;45.640;11.302;2023-05-08T15:45:23;98978.34;;;20.38;97.31
40315;BME280;26021;45.640;11.302;2023-05-08T15:47:49;98955.47;;;19.57;94.14
40315;BME280;26021;45.640;11.302;2023-05-08T15:50:14;98980.28;;;19.73;95.11
40315;BME280;26021;45.640;11.302;2023-05-08T15:52:40;98961.13;;;19.56;97.23
40315;BME280;26021;45.640;11.302;2023-05-08T15:55:06;98984.97;;;19.65;100.00
40315;BME280;26021;45.640;11.302;2023-05-08T15:57:31;98987.50;;;19.79;99.79
40315;BME280;26021;45.640;11.302;2023-05-08T15:59:57;98986.19;;;19.81;99.11
40315;BME280;26021;45.640;11.302;2023-05-08T16:02:23;98978.69;;;19.53;99.84
40315;BME280;26021;45.640;11.302;2023-05-08T16:04:49;98985.13;;;19.41;100.00
40315;BME280;26021;45.640;11.302;2023-05-08T16:07:15;98989.34;;;19.36;100.00
40315;BME280;26021;45.640;11.302;2023-05-08T16:09:41;98982.03;;;19.37;100.00
40315;BME280;26021;45.640;11.302;2023-05-08T16:12:06;98982.19;;;19.24;100.00
40315;BME280;26021;45.640;11.302;2023-05-08T16:14:32;98988.53;;;19.18;100.00
40315;BME280;26021;45.640;11.302;2023-05-08T16:16:57;98989.59;;;19.17;100.00
40315;BME280;26021;45.640;11.302;2023-05-08T16:19:22;98989.13;;;19.20;100.00
40315;BME280;26021;45.640;11.302;2023-05-08T16:21:48;98989.56;;;19.35;100.00
40315;BME280;26021;45.640;11.302;2023-05-08T16:24:14;98991.63;;;19.51;100.00